sensor_id;sensor_type;location;lat;lon;timestamp;pressure;altitude;pressure_sealevel;temperature;humidity
47761;BME280;33524;55.434;38.520;2023-11-19T00:00:28;101271.19;;;-13.53;94.46
47761;BME280;33524;55.434;38.520;2023-11-19T00:02:56;101270.09;;;-13.59;94.32
47761;BME280;33524;55.434;38.520;2023-11-19T00:05:24;101265.88;;;-13.59;94.44
47761;BME280;33524;55.434;38.520;2023-11-19T00:07:52;101268.47;;;-13.57;94.45
47761;BME280;33524;55.434;38.520;2023-11-19T00:10:20;101266.75;;;-13.58;94.53
47761;BME280;33524;55.434;38.520;2023-11-19T00:12:50;101246.50;;;-13.58;95.11
47761;BME280;33524;55.434;38.520;2023-11-19T00:15:18;101250.19;;;-13.50;95.82
47761;BME280;33524;55.434;38.520;2023-11-19T00:17:50;101261.53;;;-13.41;96.67
47761;BME280;33524;55.434;38.520;2023-11-19T00:20:19;101248.28;;;-13.35;97.00
47761;BME280;33524;55.434;38.520;2023-11-19T00:22:48;101259.41;;;-13.30;96.11
47761;BME280;33524;55.434;38.520;2023-11-19T00:25:20;101252.09;;;-13.45;94.81
47761;BME280;33524;55.434;38.520;2023-11-19T00:27:53;101256.75;;;-13.55;94.19
47761;BME280;33524;55.434;38.520;2023-11-19T00:30:21;101245.22;;;-13.70;94.31
47761;BME280;33524;55.434;38.520;2023-11-19T00:32:52;101253.66;;;-13.48;95.74
47761;BME280;33524;55.434;38.520;2023-11-19T00:35:20;101250.47;;;-13.65;94.49
47761;BME280;33524;55.434;38.520;2023-11-19T00:37:48;101252.69;;;-13.73;94.13
47761;BME280;33524;55.434;38.520;2023-11-19T00:40:20;101250.59;;;-13.83;94.01
47761;BME280;33524;55.434;38.520;2023-11-19T00:42:51;101256.28;;;-13.89;94.08
47761;BME280;33524;55.434;38.520;2023-11-19T00:45:19;101247.81;;;-13.89;94.25
47761;BME280;33524;55.434;38.520;2023-11-19T00:47:47;101253.38;;;-13.98;93.91
47761;BME280;33524;55.434;38.520;2023-11-19T00:50:16;101254.28;;;-13.96;93.89
47761;BME280;33524;55.434;38.520;2023-11-19T00:52:46;101258.50;;;-13.96;94.10
47761;BME280;33524;55.434;38.520;2023-11-19T00:55:15;101250.97;;;-13.95;94.25
47761;BME280;33524;55.434;38.520;2023-11-19T00:57:45;101244.94;;;-13.98;94.45
47761;BME280;33524;55.434;38.520;2023-11-19T01:00:13;101232.97;;;-14.03;94.41
47761;BME280;33524;55.434;38.520;2023-11-19T01:02:51;101246.63;;;-13.97;94.38
47761;BME280;33524;55.434;38.520;2023-11-19T01:05:20;101246.59;;;-13.99;94.29
47761;BME280;33524;55.434;38.520;2023-11-19T01:07:51;101242.34;;;-14.00;94.17
47761;BME280;33524;55.434;38.520;2023-11-19T01:10:22;101236.91;;;-13.88;95.41
47761;BME280;33524;55.434;38.520;2023-11-19T01:12:52;101238.38;;;-13.93;94.60
47761;BME280;33524;55.434;38.520;2023-11-19T01:15:20;101240.13;;;-13.92;94.66
47761;BME280;33524;55.434;38.520;2023-11-19T01:17:48;101229.87;;;-13.95;94.50
47761;BME280;33524;55.434;38.520;2023-11-19T01:20:23;101230.78;;;-13.93;94.34
47761;BME280;33524;55.434;38.520;2023-11-19T01:22:51;101231.72;;;-13.91;94.47
47761;BME280;33524;55.434;38.520;2023-11-19T01:25:19;101224.44;;;-13.84;94.75
47761;BME280;33524;55.434;38.520;2023-11-19T01:27:48;101227.38;;;-13.73;95.27
47761;BME280;33524;55.434;38.520;2023-11-19T01:30:17;101223.41;;;-13.45;95.99
47761;BME280;33524;55.434;38.520;2023-11-19T01:32:52;101215.06;;;-13.43;95.38
47761;BME280;33524;55.434;38.520;2023-11-19T01:35:20;101214.22;;;-13.43;94.83
47761;BME280;33524;55.434;38.520;2023-11-19T01:37:51;101212.63;;;-13.62;94.55
47761;BME280;33524;55.434;38.520;2023-11-19T01:40:21;101209.19;;;-13.64;95.01
47761;BME280;33524;55.434;38.520;2023-11-19T01:42:50;101203.25;;;-13.65;95.18
47761;BME280;33524;55.434;38.520;2023-11-19T01:45:29;101204.94;;;-13.65;95.08
47761;BME280;33524;55.434;38.520;2023-11-19T01:48:00;101211.53;;;-13.69;95.13
47761;BME280;33524;55.434;38.520;2023-11-19T01:50:32;101205.25;;;-13.57;95.48
47761;BME280;33524;55.434;38.520;2023-11-19T01:53:01;101205.50;;;-13.50;95.75
47761;BME280;33524;55.434;38.520;2023-11-19T01:55:29;101209.25;;;-13.40;95.87
47761;BME280;33524;55.434;38.520;2023-11-19T01:57:59;101207.28;;;-13.25;96.07
47761;BME280;33524;55.434;38.520;2023-11-19T02:00:30;101205.25;;;-13.11;96.15
47761;BME280;33524;55.434;38.520;2023-11-19T02:03:01;101212.53;;;-12.96;96.35
47761;BME280;33524;55.434;38.520;2023-11-19T02:05:31;101206.69;;;-12.71;96.92
47761;BME280;33524;55.434;38.520;2023-11-19T02:08:00;101212.53;;;-12.48;97.27
47761;BME280;33524;55.434;38.520;2023-11-19T02:10:32;101219.34;;;-12.21;97.77
47761;BME280;33524;55.434;38.520;2023-11-19T02:13:02;101218.53;;;-11.94;98.08
47761;BME280;33524;55.434;38.520;2023-11-19T02:15:34;101216.81;;;-11.67;98.16
47761;BME280;33524;55.434;38.520;2023-11-19T02:18:22;101207.28;;;-11.47;98.16
47761;BME280;33524;55.434;38.520;2023-11-19T02:20:51;101203.56;;;-11.29;97.96
47761;BME280;33524;55.434;38.520;2023-11-19T02:23:20;101203.25;;;-11.11;97.98
47761;BME280;33524;55.434;38.520;2023-11-19T02:28:38;101197.22;;;-10.85;97.93
47761;BME280;33524;55.434;38.520;2023-11-19T02:31:06;101212.09;;;-10.67;97.83
47761;BME280;33524;55.434;38.520;2023-11-19T02:33:38;101219.13;;;-10.58;97.78
47761;BME280;33524;55.434;38.520;2023-11-19T02:36:07;101208.44;;;-10.45;98.07
47761;BME280;33524;55.434;38.520;2023-11-19T02:38:38;101206.00;;;-10.40;98.05
47761;BME280;33524;55.434;38.520;2023-11-19T02:41:07;101216.50;;;-10.26;98.33
47761;BME280;33524;55.434;38.520;2023-11-19T02:43:38;101216.72;;;-10.17;98.45
47761;BME280;33524;55.434;38.520;2023-11-19T02:46:06;101206.72;;;-10.11;98.18
47761;BME280;33524;55.434;38.520;2023-11-19T02:48:37;101206.09;;;-10.01;98.26
47761;BME280;33524;55.434;38.520;2023-11-19T02:51:06;101201.22;;;-9.93;97.91
47761;BME280;33524;55.434;38.520;2023-11-19T02:53:38;101203.94;;;-9.85;98.00
47761;BME280;33524;55.434;38.520;2023-11-19T02:56:08;101214.34;;;-9.76;97.98
47761;BME280;33524;55.434;38.520;2023-11-19T02:58:44;101207.69;;;-9.71;97.99
47761;BME280;33524;55.434;38.520;2023-11-19T03:01:13;101202.50;;;-9.74;98.03
47761;BME280;33524;55.434;38.520;2023-11-19T03:03:51;101205.09;;;-9.72;98.28
47761;BME280;33524;55.434;38.520;2023-11-19T03:06:26;101205.34;;;-9.62;97.98
47761;BME280;33524;55.434;38.520;2023-11-19T03:08:58;101197.62;;;-9.65;98.05
47761;BME280;33524;55.434;38.520;2023-11-19T03:11:29;101189.28;;;-9.58;98.12
47761;BME280;33524;55.434;38.520;2023-11-19T03:13:57;101193.56;;;-9.57;97.88
47761;BME280;33524;55.434;38.520;2023-11-19T03:16:25;101163.78;;;-9.59;98.00
47761;BME280;33524;55.434;38.520;2023-11-19T03:18:54;101181.84;;;-9.50;97.71
47761;BME280;33524;55.434;38.520;2023-11-19T03:21:33;101178.50;;;-9.47;97.87
47761;BME280;33524;55.434;38.520;2023-11-19T03:24:02;101183.59;;;-9.47;98.05
47761;BME280;33524;55.434;38.520;2023-11-19T03:26:30;101176.13;;;-9.40;98.25
47761;BME280;33524;55.434;38.520;2023-11-19T03:28:58;101177.78;;;-9.42;98.18
47761;BME280;33524;55.434;38.520;2023-11-19T03:31:26;101152.13;;;-9.49;98.14
47761;BME280;33524;55.434;38.520;2023-11-19T03:33:54;101185.47;;;-9.39;98.27
47761;BME280;33524;55.434;38.520;2023-11-19T03:36:32;101178.06;;;-9.28;98.17
47761;BME280;33524;55.434;38.520;2023-11-19T03:39:01;101161.72;;;-9.38;98.16
47761;BME280;33524;55.434;38.520;2023-11-19T03:41:34;101177.34;;;-9.21;98.14
47761;BME280;33524;55.434;38.520;2023-11-19T03:44:05;101178.06;;;-9.28;98.41
47761;BME280;33524;55.434;38.520;2023-11-19T03:46:34;101174.09;;;-9.15;98.38
47761;BME280;33524;55.434;38.520;2023-11-19T03:49:04;101169.00;;;-9.14;97.94
47761;BME280;33524;55.434;38.520;2023-11-19T03:51:35;101157.91;;;-9.16;98.07
47761;BME280;33524;55.434;38.520;2023-11-19T03:54:03;101173.41;;;-9.06;98.08
47761;BME280;33524;55.434;38.520;2023-11-19T03:56:31;101168.22;;;-9.09;98.32
47761;BME280;33524;55.434;38.520;2023-11-19T03:58:59;101164.19;;;-9.00;98.30
47761;BME280;33524;55.434;38.520;2023-11-19T04:01:27;101157.44;;;-8.98;98.04
47761;BME280;33524;55.434;38.520;2023-11-19T04:03:56;101154.06;;;-8.95;98.05
47761;BME280;33524;55.434;38.520;2023-11-19T04:06:26;101148.97;;;-8.95;98.02
47761;BME280;33524;55.434;38.520;2023-11-19T04:08:55;101146.31;;;-9.01;98.34
47761;BME280;33524;55.434;38.520;2023-11-19T04:11:26;101143.09;;;-8.91;98.40
47761;BME280;33524;55.434;38.520;2023-11-19T04:13:54;101128.69;;;-8.89;98.00
47761;BME280;33524;55.434;38.520;2023-11-19T04:16:28;101132.97;;;-8.88;98.23
47761;BME280;33524;55.434;38.520;2023-11-19T04:18:57;101125.25;;;-8.91;98.31
47761;BME280;33524;55.434;38.520;2023-11-19T04:21:26;101130.34;;;-8.93;98.16
47761;BME280;33524;55.434;38.520;2023-11-19T04:23:57;101125.37;;;-8.86;98.21
47761;BME280;33524;55.434;38.520;2023-11-19T04:26:26;101127.91;;;-8.85;98.08
47761;BME280;33524;55.434;38.520;2023-11-19T04:28:56;101118.50;;;-8.90;98.08
47761;BME280;33524;55.434;38.520;2023-11-19T04:31:29;101124.50;;;-8.87;98.13
47761;BME280;33524;55.434;38.520;2023-11-19T04:33:59;101105.59;;;-8.98;98.03
47761;BME280;33524;55.434;38.520;2023-11-19T04:36:28;101113.31;;;-8.94;98.30
47761;BME280;33524;55.434;38.520;2023-11-19T04:38:57;101119.50;;;-8.82;98.46
47761;BME280;33524;55.434;38.520;2023-11-19T04:41:26;101120.31;;;-8.83;98.65
47761;BME280;33524;55.434;38.520;2023-11-19T04:43:55;101124.72;;;-8.76;98.72
47761;BME280;33524;55.434;38.520;2023-11-19T04:46:23;101132.47;;;-8.70;98.58
47761;BME280;33524;55.434;38.520;2023-11-19T04:48:51;101122.38;;;-8.64;98.70
47761;BME280;33524;55.434;38.520;2023-11-19T04:51:20;101119.06;;;-8.60;98.62
47761;BME280;33524;55.434;38.520;2023-11-19T04:53:50;101121.50;;;-8.64;98.75
47761;BME280;33524;55.434;38.520;2023-11-19T04:56:18;101129.25;;;-8.60;99.00
47761;BME280;33524;55.434;38.520;2023-11-19T04:58:47;101126.75;;;-8.57;99.25
47761;BME280;33524;55.434;38.520;2023-11-19T05:01:18;101133.66;;;-8.51;99.19
47761;BME280;33524;55.434;38.520;2023-11-19T05:03:49;101130.25;;;-8.50;99.00
47761;BME280;33524;55.434;38.520;2023-11-19T05:06:19;101139.75;;;-8.41;99.14
47761;BME280;33524;55.434;38.520;2023-11-19T05:08:47;101128.78;;;-8.34;99.29
47761;BME280;33524;55.434;38.520;2023-11-19T05:11:15;101126.28;;;-8.33;99.38
47761;BME280;33524;55.434;38.520;2023-11-19T05:13:47;101132.28;;;-8.27;99.09
47761;BME280;33524;55.434;38.520;2023-11-19T05:16:16;101135.63;;;-8.32;98.87
47761;BME280;33524;55.434;38.520;2023-11-19T05:18:45;101115.25;;;-8.30;99.13
47761;BME280;33524;55.434;38.520;2023-11-19T05:21:15;101129.84;;;-8.21;99.03
47761;BME280;33524;55.434;38.520;2023-11-19T05:23:49;101122.28;;;-8.15;99.03
47761;BME280;33524;55.434;38.520;2023-11-19T05:26:21;101123.91;;;-8.19;99.22
47761;BME280;33524;55.434;38.520;2023-11-19T05:28:50;101121.47;;;-8.13;99.54
47761;BME280;33524;55.434;38.520;2023-11-19T05:31:19;101129.16;;;-8.11;99.71
47761;BME280;33524;55.434;38.520;2023-11-19T05:33:48;101134.25;;;-8.11;99.24
47761;BME280;33524;55.434;38.520;2023-11-19T05:36:17;101140.31;;;-8.04;99.17
47761;BME280;33524;55.434;38.520;2023-11-19T05:38:45;101137.84;;;-7.98;99.37
47761;BME280;33524;55.434;38.520;2023-11-19T05:41:15;101137.12;;;-7.91;99.56
47761;BME280;33524;55.434;38.520;2023-11-19T05:43:43;101128.69;;;-7.87;99.69
47761;BME280;33524;55.434;38.520;2023-11-19T05:46:12;101136.34;;;-7.85;99.73
47761;BME280;33524;55.434;38.520;2023-11-19T05:48:44;101117.53;;;-7.94;99.65
47761;BME280;33524;55.434;38.520;2023-11-19T05:51:18;101137.41;;;-7.73;99.63
47761;BME280;33524;55.434;38.520;2023-11-19T05:53:48;101139.97;;;-7.69;99.42
47761;BME280;33524;55.434;38.520;2023-11-19T05:56:23;101142.53;;;-7.69;99.63
47761;BME280;33524;55.434;38.520;2023-11-19T05:59:00;101146.91;;;-7.62;99.69
47761;BME280;33524;55.434;38.520;2023-11-19T06:01:36;101141.87;;;-7.55;99.96
47761;BME280;33524;55.434;38.520;2023-11-19T06:04:05;101143.69;;;-7.47;100.00
47761;BME280;33524;55.434;38.520;2023-11-19T06:06:38;101143.81;;;-7.40;100.00
47761;BME280;33524;55.434;38.520;2023-11-19T06:09:10;101140.41;;;-7.37;100.00
47761;BME280;33524;55.434;38.520;2023-11-19T06:11:42;101137.94;;;-7.31;100.00
47761;BME280;33524;55.434;38.520;2023-11-19T06:14:16;101128.56;;;-7.31;100.00
47761;BME280;33524;55.434;38.520;2023-11-19T06:16:47;101111.50;;;-7.33;100.00
47761;BME280;33524;55.434;38.520;2023-11-19T06:19:21;101132.19;;;-7.15;100.00
47761;BME280;33524;55.434;38.520;2023-11-19T06:21:59;101133.06;;;-7.13;100.00
47761;BME280;33524;55.434;38.520;2023-11-19T06:24:31;101120.34;;;-7.05;100.00
47761;BME280;33524;55.434;38.520;2023-11-19T06:27:02;101122.97;;;-7.00;100.00
47761;BME280;33524;55.434;38.520;2023-11-19T06:29:34;101120.47;;;-6.94;100.00
47761;BME280;33524;55.434;38.520;2023-11-19T06:32:05;101123.88;;;-6.95;100.00
47761;BME280;33524;55.434;38.520;2023-11-19T06:34:40;101122.16;;;-6.96;100.00
47761;BME280;33524;55.434;38.520;2023-11-19T06:37:16;101121.41;;;-6.87;100.00
47761;BME280;33524;55.434;38.520;2023-11-19T06:39:48;101125.66;;;-6.88;100.00
47761;BME280;33524;55.434;38.520;2023-11-19T06:42:22;101128.25;;;-6.85;100.00
47761;BME280;33524;55.434;38.520;2023-11-19T06:44:58;101135.91;;;-6.85;100.00
47761;BME280;33524;55.434;38.520;2023-11-19T06:47:32;101117.12;;;-6.87;100.00
47761;BME280;33524;55.434;38.520;2023-11-19T06:50:08;101121.50;;;-6.77;100.00
47761;BME280;33524;55.434;38.520;2023-11-19T06:52:40;101123.25;;;-6.73;100.00
47761;BME280;33524;55.434;38.520;2023-11-19T06:55:19;101121.47;;;-6.78;100.00
47761;BME280;33524;55.434;38.520;2023-11-19T06:57:54;101122.41;;;-6.72;100.00
47761;BME280;33524;55.434;38.520;2023-11-19T07:00:27;101120.78;;;-6.63;100.00
47761;BME280;33524;55.434;38.520;2023-11-19T07:03:04;101124.31;;;-6.49;100.00
47761;BME280;33524;55.434;38.520;2023-11-19T07:05:41;101123.44;;;-6.54;100.00
47761;BME280;33524;55.434;38.520;2023-11-19T07:08:21;101118.34;;;-6.50;100.00
47761;BME280;33524;55.434;38.520;2023-11-19T07:10:56;101110.75;;;-6.42;100.00
47761;BME280;33524;55.434;38.520;2023-11-19T07:13:38;101107.41;;;-6.32;100.00
47761;BME280;33524;55.434;38.520;2023-11-19T07:16:18;101105.69;;;-6.36;100.00
47761;BME280;33524;55.434;38.520;2023-11-19T07:18:56;101104.00;;;-6.32;100.00
47761;BME280;33524;55.434;38.520;2023-11-19T07:21:31;101110.84;;;-6.30;100.00
47761;BME280;33524;55.434;38.520;2023-11-19T07:24:05;101108.28;;;-6.30;100.00
47761;BME280;33524;55.434;38.520;2023-11-19T07:26:46;101107.50;;;-6.24;100.00
47761;BME280;33524;55.434;38.520;2023-11-19T07:29:23;101109.16;;;-6.27;100.00
47761;BME280;33524;55.434;38.520;2023-11-19T07:32:02;101107.47;;;-6.25;100.00
47761;BME280;33524;55.434;38.520;2023-11-19T07:34:36;101113.50;;;-6.14;100.00
47761;BME280;33524;55.434;38.520;2023-11-19T07:37:10;101112.63;;;-6.19;99.92
47761;BME280;33524;55.434;38.520;2023-11-19T07:39:48;101107.47;;;-6.22;100.00
47761;BME280;33524;55.434;38.520;2023-11-19T07:42:23;101107.53;;;-6.18;100.00
47761;BME280;33524;55.434;38.520;2023-11-19T07:45:05;101105.09;;;-6.01;100.00
47761;BME280;33524;55.434;38.520;2023-11-19T07:47:48;101104.09;;;-6.18;99.75
47761;BME280;33524;55.434;38.520;2023-11-19T07:50:32;101099.75;;;-6.27;99.32
47761;BME280;33524;55.434;38.520;2023-11-19T07:53:13;101110.94;;;-6.17;99.81
47761;BME280;33524;55.434;38.520;2023-11-19T07:55:51;101115.00;;;-6.41;99.36
47761;BME280;33524;55.434;38.520;2023-11-19T07:58:32;101112.44;;;-6.41;99.55
47761;BME280;33524;55.434;38.520;2023-11-19T08:01:15;101101.63;;;-6.06;100.00
47761;BME280;33524;55.434;38.520;2023-11-19T08:03:57;101108.34;;;-6.22;99.61
47761;BME280;33524;55.434;38.520;2023-11-19T08:06:40;101102.38;;;-6.24;99.71
47761;BME280;33524;55.434;38.520;2023-11-19T08:09:24;101091.41;;;-6.07;99.90
47761;BME280;33524;55.434;38.520;2023-11-19T08:12:03;101082.88;;;-6.03;100.00
47761;BME280;33524;55.434;38.520;2023-11-19T08:14:41;101101.72;;;-5.91;99.92
47761;BME280;33524;55.434;38.520;2023-11-19T08:17:21;101099.13;;;-5.97;99.20
47761;BME280;33524;55.434;38.520;2023-11-19T08:20:05;101103.47;;;-5.77;100.00
47761;BME280;33524;55.434;38.520;2023-11-19T08:22:45;101097.59;;;-5.62;100.00
47761;BME280;33524;55.434;38.520;2023-11-19T08:25:25;101095.81;;;-5.76;99.49
47761;BME280;33524;55.434;38.520;2023-11-19T08:28:02;101094.13;;;-5.74;99.25
47761;BME280;33524;55.434;38.520;2023-11-19T08:30:48;101100.06;;;-5.75;98.55
47761;BME280;33524;55.434;38.520;2023-11-19T08:33:21;101096.62;;;-5.81;98.49
47761;BME280;33524;55.434;38.520;2023-11-19T08:36:08;101088.19;;;-5.68;99.89
47761;BME280;33524;55.434;38.520;2023-11-19T08:39:01;101082.19;;;-5.62;100.00
47761;BME280;33524;55.434;38.520;2023-11-19T08:41:42;101085.56;;;-5.77;98.51
47761;BME280;33524;55.434;38.520;2023-11-19T08:44:25;101079.66;;;-5.61;100.00
47761;BME280;33524;55.434;38.520;2023-11-19T08:47:06;101080.34;;;-5.90;97.98
47761;BME280;33524;55.434;38.520;2023-11-19T08:49:46;101072.62;;;-6.00;97.88
47761;BME280;33524;55.434;38.520;2023-11-19T08:52:37;101068.38;;;-6.00;97.93
47761;BME280;33524;55.434;38.520;2023-11-19T08:55:07;101074.59;;;-5.47;100.00
47761;BME280;33524;55.434;38.520;2023-11-19T08:57:49;101072.75;;;-5.73;99.06
47761;BME280;33524;55.434;38.520;2023-11-19T09:00:29;101076.97;;;-5.85;98.56
47761;BME280;33524;55.434;38.520;2023-11-19T09:03:08;101073.59;;;-5.80;98.10
47761;BME280;33524;55.434;38.520;2023-11-19T09:05:52;101075.31;;;-5.80;97.76
47761;BME280;33524;55.434;38.520;2023-11-19T09:08:28;101077.81;;;-5.85;97.56
47761;BME280;33524;55.434;38.520;2023-11-19T09:11:10;101071.91;;;-5.76;97.49
47761;BME280;33524;55.434;38.520;2023-11-19T09:13:57;101064.97;;;-5.96;97.23
47761;BME280;33524;55.434;38.520;2023-11-19T09:16:36;101065.91;;;-5.80;97.72
47761;BME280;33524;55.434;38.520;2023-11-19T09:19:18;101076.28;;;-5.54;100.00
47761;BME280;33524;55.434;38.520;2023-11-19T09:22:00;101073.72;;;-5.51;99.81
47761;BME280;33524;55.434;38.520;2023-11-19T09:24:32;101041.19;;;-5.70;98.71
47761;BME280;33524;55.434;38.520;2023-11-19T09:27:09;101070.31;;;-5.56;98.33
47761;BME280;33524;55.434;38.520;2023-11-19T09:29:54;101069.47;;;-5.49;98.38
47761;BME280;33524;55.434;38.520;2023-11-19T09:32:40;101061.94;;;-4.78;100.00
47761;BME280;33524;55.434;38.520;2023-11-19T09:35:27;101058.44;;;-5.26;99.16
47761;BME280;33524;55.434;38.520;2023-11-19T09:38:07;101055.81;;;-5.44;97.94
47761;BME280;33524;55.434;38.520;2023-11-19T09:40:50;101048.16;;;-5.32;98.50
47761;BME280;33524;55.434;38.520;2023-11-19T09:43:35;101039.56;;;-5.48;97.67
47761;BME280;33524;55.434;38.520;2023-11-19T09:46:18;101035.31;;;-5.41;97.61
47761;BME280;33524;55.434;38.520;2023-11-19T09:49:09;101028.50;;;-5.33;98.95
47761;BME280;33524;55.434;38.520;2023-11-19T09:51:55;101031.09;;;-5.33;97.79
47761;BME280;33524;55.434;38.520;2023-11-19T09:54:36;101019.16;;;-4.94;100.00
47761;BME280;33524;55.434;38.520;2023-11-19T09:57:18;101020.84;;;-5.22;98.47
47761;BME280;33524;55.434;38.520;2023-11-19T09:59:56;101008.88;;;-5.13;98.76
47761;BME280;33524;55.434;38.520;2023-11-19T10:02:37;101008.03;;;-5.18;97.31
47761;BME280;33524;55.434;38.520;2023-11-19T10:05:20;101008.06;;;-4.95;100.00
47761;BME280;33524;55.434;38.520;2023-11-19T10:07:58;101008.88;;;-5.07;98.76
47761;BME280;33524;55.434;38.520;2023-11-19T10:10:36;101009.72;;;-5.21;97.70
47761;BME280;33524;55.434;38.520;2023-11-19T10:13:12;101005.47;;;-5.27;97.65
47761;BME280;33524;55.434;38.520;2023-11-19T10:15:58;101008.00;;;-5.35;96.75
47761;BME280;33524;55.434;38.520;2023-11-19T10:18:38;101012.25;;;-5.41;96.83
47761;BME280;33524;55.434;38.520;2023-11-19T10:21:26;101007.09;;;-5.40;97.48
47761;BME280;33524;55.434;38.520;2023-11-19T10:24:10;101003.69;;;-5.47;97.74
47761;BME280;33524;55.434;38.520;2023-11-19T10:26:57;101001.97;;;-5.46;97.55
47761;BME280;33524;55.434;38.520;2023-11-19T10:29:44;100995.97;;;-5.48;97.50
47761;BME280;33524;55.434;38.520;2023-11-19T10:32:23;100990.13;;;-4.85;100.00
47761;BME280;33524;55.434;38.520;2023-11-19T10:35:09;100981.50;;;-5.21;100.00
47761;BME280;33524;55.434;38.520;2023-11-19T10:37:52;100980.66;;;-5.19;99.31
47761;BME280;33524;55.434;38.520;2023-11-19T10:40:40;100981.53;;;-5.11;100.00
47761;BME280;33524;55.434;38.520;2023-11-19T10:43:23;100970.44;;;-4.74;100.00
47761;BME280;33524;55.434;38.520;2023-11-19T10:46:13;100988.38;;;-5.08;99.71
47761;BME280;33524;55.434;38.520;2023-11-19T10:48:58;100984.06;;;-5.31;98.12
47761;BME280;33524;55.434;38.520;2023-11-19T10:51:34;100982.37;;;-5.29;97.88
47761;BME280;33524;55.434;38.520;2023-11-19T10:54:17;100981.53;;;-5.03;100.00
47761;BME280;33524;55.434;38.520;2023-11-19T10:57:05;100979.72;;;-5.50;98.15
47761;BME280;33524;55.434;38.520;2023-11-19T10:59:47;100979.69;;;-5.69;98.08
47761;BME280;33524;55.434;38.520;2023-11-19T11:02:25;100976.22;;;-5.81;96.81
47761;BME280;33524;55.434;38.520;2023-11-19T11:05:05;100981.31;;;-5.83;96.15
47761;BME280;33524;55.434;38.520;2023-11-19T11:07:46;100986.53;;;-5.72;96.20
47761;BME280;33524;55.434;38.520;2023-11-19T11:10:19;100981.38;;;-5.71;95.99
47761;BME280;33524;55.434;38.520;2023-11-19T11:13:05;100988.22;;;-5.67;96.20
47761;BME280;33524;55.434;38.520;2023-11-19T11:15:45;100985.69;;;-5.65;96.36
47761;BME280;33524;55.434;38.520;2023-11-19T11:18:24;100956.69;;;-5.47;99.54
47761;BME280;33524;55.434;38.520;2023-11-19T11:21:07;100995.12;;;-5.58;96.15
47761;BME280;33524;55.434;38.520;2023-11-19T11:26:43;101000.19;;;-5.72;95.86
47761;BME280;33524;55.434;38.520;2023-11-19T11:36:03;101002.72;;;-5.75;94.98
47761;BME280;33524;55.434;38.520;2023-11-19T11:38:54;101004.56;;;-5.38;99.87
47761;BME280;33524;55.434;38.520;2023-11-19T11:41:39;101005.31;;;-5.67;95.83
47761;BME280;33524;55.434;38.520;2023-11-19T11:50:58;100990.78;;;-5.71;94.56
47761;BME280;33524;55.434;38.520;2023-11-19T11:53:38;100990.75;;;-5.76;94.58
47761;BME280;33524;55.434;38.520;2023-11-19T11:56:18;101004.41;;;-5.80;94.07
47761;BME280;33524;55.434;38.520;2023-11-19T11:58:57;100997.53;;;-5.87;93.56
47761;BME280;33524;55.434;38.520;2023-11-19T12:01:58;100997.56;;;-5.95;94.76
47761;BME280;33524;55.434;38.520;2023-11-19T12:04:39;100987.28;;;-5.98;93.98
47761;BME280;33524;55.434;38.520;2023-11-19T12:07:21;100988.12;;;-5.94;93.94
47761;BME280;33524;55.434;38.520;2023-11-19T12:10:11;100979.59;;;-5.92;94.16
47761;BME280;33524;55.434;38.520;2023-11-19T12:13:11;100979.63;;;-5.85;96.03
47761;BME280;33524;55.434;38.520;2023-11-19T12:18:31;100965.09;;;-5.93;95.61
47761;BME280;33524;55.434;38.520;2023-11-19T12:21:11;100971.94;;;-5.96;95.62
47761;BME280;33524;55.434;38.520;2023-11-19T12:23:52;100967.62;;;-5.94;94.67
47761;BME280;33524;55.434;38.520;2023-11-19T12:26:37;100959.09;;;-5.92;94.27
47761;BME280;33524;55.434;38.520;2023-11-19T12:29:15;100950.56;;;-6.00;94.20
47761;BME280;33524;55.434;38.520;2023-11-19T12:31:59;100947.94;;;-6.12;94.06
47761;BME280;33524;55.434;38.520;2023-11-19T12:34:41;100942.00;;;-6.10;94.18
47761;BME280;33524;55.434;38.520;2023-11-19T12:37:27;100947.97;;;-6.11;94.60
47761;BME280;33524;55.434;38.520;2023-11-19T12:40:17;100938.59;;;-6.04;94.05
47761;BME280;33524;55.434;38.520;2023-11-19T12:42:59;100918.91;;;-6.22;93.85
47761;BME280;33524;55.434;38.520;2023-11-19T12:45:35;100931.78;;;-6.05;95.11
47761;BME280;33524;55.434;38.520;2023-11-19T12:48:13;100917.34;;;-5.66;99.29
47761;BME280;33524;55.434;38.520;2023-11-19T12:50:51;100914.00;;;-5.03;100.00
47761;BME280;33524;55.434;38.520;2023-11-19T12:53:56;100913.91;;;-5.76;96.89
47761;BME280;33524;55.434;38.520;2023-11-19T12:56:29;100914.78;;;-5.69;97.62
47761;BME280;33524;55.434;38.520;2023-11-19T12:59:14;100913.88;;;-5.83;96.44
47761;BME280;33524;55.434;38.520;2023-11-19T13:01:58;100913.12;;;-5.42;100.00
47761;BME280;33524;55.434;38.520;2023-11-19T13:04:37;100907.97;;;-5.55;99.35
47761;BME280;33524;55.434;38.520;2023-11-19T13:07:21;100918.13;;;-5.93;95.61
47761;BME280;33524;55.434;38.520;2023-11-19T13:10:05;100907.94;;;-5.70;99.41
47761;BME280;33524;55.434;38.520;2023-11-19T13:12:43;100909.66;;;-5.63;99.55
47761;BME280;33524;55.434;38.520;2023-11-19T13:15:24;100907.13;;;-5.54;99.88
47761;BME280;33524;55.434;38.520;2023-11-19T13:18:09;100902.84;;;-5.55;100.00
47761;BME280;33524;55.434;38.520;2023-11-19T13:20:47;100907.06;;;-5.77;98.37
47761;BME280;33524;55.434;38.520;2023-11-19T13:23:23;100910.41;;;-6.13;95.52
47761;BME280;33524;55.434;38.520;2023-11-19T13:26:04;100912.16;;;-6.00;98.68
47761;BME280;33524;55.434;38.520;2023-11-19T13:28:44;100918.09;;;-6.13;96.83
47761;BME280;33524;55.434;38.520;2023-11-19T13:31:33;100911.19;;;-6.26;96.68
47761;BME280;33524;55.434;38.520;2023-11-19T13:34:04;100907.97;;;-5.64;100.00
47761;BME280;33524;55.434;38.520;2023-11-19T13:36:46;100916.31;;;-6.20;96.36
47761;BME280;33524;55.434;38.520;2023-11-19T13:39:28;100924.78;;;-6.40;97.04